Time;durP1;ratioP1;P1;durP2;ratioP2;P2;SDS_P1;SDS_P2;PMS_P1;PMS_P2;Temp;Humidity;BMP_temperature;BMP_pressure;BME280_temperature;BME280_humidity;BME280_pressure;Samples;Min_cycle;Max_cycle;Signal;HPM_P1;HPM_P2
2020/12/28 00:01:58;;;;;;;4.45;1.63;;;5.50;99.50;;;;;;4992581;28;20468;-71
2020/12/28 00:04:25;;;;;;;2.70;1.45;;;5.50;99.70;;;;;;4992570;28;20504;-71
2020/12/28 00:06:51;;;;;;;2.25;1.42;;;5.50;99.50;;;;;;4991780;28;20735;-71
2020/12/28 00:09:16;;;;;;;2.67;1.58;;;5.50;99.50;;;;;;4991585;28;20026;-71
2020/12/28 00:11:42;;;;;;;2.65;1.58;;;5.40;99.50;;;;;;4994109;28;20026;-71
2020/12/28 00:14:08;;;;;;;1.60;1.10;;;5.40;99.60;;;;;;4992638;28;20034;-71
2020/12/28 00:16:34;;;;;;;2.63;1.20;;;5.40;99.60;;;;;;4992469;28;20368;-71
2020/12/28 00:18:59;;;;;;;1.50;1.13;;;5.40;99.60;;;;;;4992464;28;20035;-70
2020/12/28 00:21:25;;;;;;;1.80;1.25;;;5.40;99.60;;;;;;4992388;28;20057;-71
2020/12/28 00:23:51;;;;;;;2.80;1.50;;;5.40;99.60;;;;;;4993952;28;20026;-70
2020/12/28 00:26:17;;;;;;;3.38;1.55;;;5.40;99.90;;;;;;4992407;28;20361;-70
2020/12/28 00:28:43;;;;;;;2.38;1.45;;;5.40;99.70;;;;;;4992473;28;20045;-72
2020/12/28 00:31:09;;;;;;;2.30;1.20;;;5.40;99.70;;;;;;4991513;28;20042;-72
2020/12/28 00:33:36;;;;;;;1.42;1.20;;;5.50;99.70;;;;;;4992482;28;20457;-71
2020/12/28 00:36:01;;;;;;;1.35;1.10;;;5.40;99.60;;;;;;4993542;28;20018;-71
2020/12/28 00:38:27;;;;;;;1.60;1.23;;;5.40;99.60;;;;;;4991223;28;20088;-71
2020/12/28 00:40:53;;;;;;;2.97;1.23;;;5.40;99.60;;;;;;4992010;28;20515;-71
2020/12/28 00:43:18;;;;;;;1.63;1.20;;;5.40;99.70;;;;;;4992254;28;20508;-73
2020/12/28 00:45:44;;;;;;;1.73;1.15;;;5.40;99.70;;;;;;4992029;28;20043;-72
2020/12/28 00:48:13;;;;;;;1.98;1.30;;;5.40;99.70;;;;;;4992150;28;20019;-70
2020/12/28 00:50:39;;;;;;;1.55;1.10;;;5.50;99.60;;;;;;4993671;28;20080;-71
2020/12/28 00:53:04;;;;;;;3.25;1.00;;;5.40;99.60;;;;;;4992159;28;20054;-70
2020/12/28 00:55:30;;;;;;;1.20;1.05;;;5.50;99.60;;;;;;4991892;28;20062;-72
2020/12/28 00:57:56;;;;;;;2.03;1.10;;;5.50;99.60;;;;;;4991061;28;20512;-70
2020/12/28 01:00:21;;;;;;;2.10;1.30;;;5.50;99.60;;;;;;4991934;28;20054;-70
2020/12/28 01:02:47;;;;;;;2.28;1.00;;;5.50;99.60;;;;;;4993573;28;20455;-71
2020/12/28 01:05:13;;;;;;;1.17;1.00;;;5.50;99.60;;;;;;4992121;28;20081;-70
2020/12/28 01:07:38;;;;;;;2.35;0.80;;;5.50;99.60;;;;;;4991961;28;20437;-70
2020/12/28 01:10:04;;;;;;;1.20;1.00;;;5.50;99.90;;;;;;4991627;28;20050;-71
2020/12/28 01:12:32;;;;;;;1.00;0.70;;;5.50;99.60;;;;;;4991834;28;20053;-72
2020/12/28 01:14:58;;;;;;;0.63;0.63;;;5.50;99.60;;;;;;4993438;28;20058;-71
2020/12/28 01:17:27;;;;;;;2.30;0.70;;;5.50;99.50;;;;;;4992099;28;20464;-70
2020/12/28 01:19:52;;;;;;;1.15;0.77;;;5.50;99.60;;;;;;4995911;28;20042;-70
2020/12/28 01:22:18;;;;;;;0.90;0.60;;;5.60;99.60;;;;;;4994622;28;20088;-70
2020/12/28 01:24:43;;;;;;;1.52;0.77;;;5.60;99.50;;;;;;4995695;28;20041;-70
2020/12/28 01:27:09;;;;;;;3.95;0.60;;;5.60;99.60;;;;;;4995494;28;20114;-72
2020/12/28 01:29:35;;;;;;;1.02;0.70;;;5.60;99.60;;;;;;4997013;28;20037;-70
2020/12/28 01:32:00;;;;;;;1.42;0.75;;;5.60;99.60;;;;;;4995464;28;20034;-72
2020/12/28 01:34:26;;;;;;;1.13;0.60;;;5.60;99.90;;;;;;4995728;28;20030;-71
2020/12/28 01:36:51;;;;;;;1.50;0.98;;;5.70;99.70;;;;;;4995404;28;20041;-70
2020/12/28 01:39:17;;;;;;;1.50;0.93;;;5.70;99.70;;;;;;4995115;28;20077;-71
2020/12/28 01:41:43;;;;;;;2.83;1.00;;;5.70;99.70;;;;;;4996686;28;20030;-71
2020/12/28 01:44:09;;;;;;;2.13;1.13;;;5.70;99.70;;;;;;4995067;28;20457;-70
2020/12/28 01:46:35;;;;;;;1.55;0.85;;;5.70;99.60;;;;;;4993893;28;20428;-70
2020/12/28 01:49:01;;;;;;;1.75;0.80;;;5.70;99.70;;;;;;4994958;28;20038;-70
2020/12/28 01:51:27;;;;;;;1.35;0.70;;;5.70;99.70;;;;;;4995030;28;20026;-71
2020/12/28 01:53:53;;;;;;;1.52;0.98;;;5.80;99.60;;;;;;4996596;28;20069;-71
2020/12/28 01:56:21;;;;;;;0.98;0.60;;;5.80;99.60;;;;;;4994800;28;20349;-70
2020/12/28 01:58:47;;;;;;;1.60;0.80;;;5.80;99.50;;;;;;4995165;28;20049;-71
2020/12/28 02:01:15;;;;;;;0.82;0.60;;;5.80;99.50;;;;;;4994106;28;20472;-71
2020/12/28 02:03:42;;;;;;;0.85;0.70;;;5.80;99.50;;;;;;4994809;28;20129;-70
2020/12/28 02:06:08;;;;;;;1.20;0.47;;;5.90;99.60;;;;;;4994838;28;20165;-70
2020/12/28 02:08:33;;;;;;;0.85;0.50;;;5.90;99.50;;;;;;4996363;28;20441;-71
2020/12/28 02:11:00;;;;;;;1.08;0.60;;;5.90;99.50;;;;;;4993914;28;20503;-70
2020/12/28 02:13:26;;;;;;;0.57;0.50;;;5.90;99.50;;;;;;4994894;28;20039;-70
2020/12/28 02:15:51;;;;;;;1.02;0.80;;;6.00;99.50;;;;;;4994479;28;20096;-71
2020/12/28 02:18:20;;;;;;;1.92;0.80;;;5.90;99.40;;;;;;4994445;28;20334;-71
2020/12/28 02:20:46;;;;;;;1.85;0.77;;;6.00;99.40;;;;;;4995937;28;20065;-72
2020/12/28 02:23:12;;;;;;;0.80;0.57;;;6.00;99.40;;;;;;4994544;28;20457;-71
2020/12/28 02:25:38;;;;;;;0.55;0.50;;;6.00;99.40;;;;;;4994462;28;20048;-72
2020/12/28 02:28:03;;;;;;;0.88;0.60;;;6.00;99.40;;;;;;4994513;28;20045;-71
2020/12/28 02:30:29;;;;;;;1.73;0.70;;;6.00;99.40;;;;;;4993925;28;20448;-72
2020/12/28 02:32:55;;;;;;;0.47;0.40;;;6.10;99.30;;;;;;4995871;28;20461;-72
2020/12/28 02:35:20;;;;;;;1.25;0.60;;;6.00;99.30;;;;;;4994340;28;20035;-71
2020/12/28 02:37:46;;;;;;;0.30;0.28;;;6.00;99.40;;;;;;4993431;28;20034;-72
2020/12/28 02:40:12;;;;;;;0.52;0.45;;;6.00;99.40;;;;;;4994047;28;20108;-72
2020/12/28 02:42:38;;;;;;;0.43;0.43;;;6.00;99.40;;;;;;4994367;28;20039;-71
2020/12/28 02:45:04;;;;;;;0.55;0.50;;;6.00;99.30;;;;;;4995641;28;20041;-72
2020/12/28 02:47:29;;;;;;;0.50;0.40;;;6.00;99.50;;;;;;4994516;28;20357;-72
2020/12/28 02:49:55;;;;;;;1.40;0.40;;;6.00;99.50;;;;;;4993898;28;20046;-71
2020/12/28 02:52:20;;;;;;;0.40;0.40;;;6.00;99.50;;;;;;4993165;28;20046;-73
2020/12/28 02:54:46;;;;;;;0.57;0.35;;;6.10;99.50;;;;;;4993311;28;20086;-72
2020/12/28 02:57:12;;;;;;;0.85;0.50;;;6.10;99.30;;;;;;4993849;28;20413;-72
2020/12/28 02:59:37;;;;;;;0.43;0.43;;;6.10;99.40;;;;;;4995337;28;20061;-71
2020/12/28 03:02:03;;;;;;;1.17;0.30;;;6.10;99.40;;;;;;4993804;28;20040;-71
2020/12/28 03:04:29;;;;;;;1.08;0.50;;;6.10;99.30;;;;;;4992447;28;20149;-73
2020/12/28 03:06:54;;;;;;;0.73;0.50;;;6.10;99.30;;;;;;4992595;28;20464;-72
2020/12/28 03:09:20;;;;;;;1.40;0.45;;;6.10;99.30;;;;;;4993755;28;20034;-72
2020/12/28 03:11:46;;;;;;;1.40;0.68;;;6.10;99.30;;;;;;4994997;28;20019;-72
2020/12/28 03:14:12;;;;;;;2.67;0.70;;;6.00;99.30;;;;;;4993485;28;20038;-72
2020/12/28 03:16:37;;;;;;;0.57;0.50;;;6.20;99.30;;;;;;4993482;28;20035;-72
2020/12/28 03:19:03;;;;;;;1.30;0.63;;;6.10;99.10;;;;;;4993445;28;20027;-72
2020/12/28 03:21:28;;;;;;;0.82;0.50;;;6.10;99.20;;;;;;4993182;28;20042;-72
2020/12/28 03:23:54;;;;;;;1.05;0.55;;;6.10;99.10;;;;;;4994981;28;20361;-72
2020/12/28 03:26:20;;;;;;;0.47;0.40;;;6.10;99.20;;;;;;4993251;28;20046;-72
2020/12/28 03:28:45;;;;;;;1.27;0.50;;;6.10;99.20;;;;;;4993449;28;20097;-72
2020/12/28 03:31:11;;;;;;;0.40;0.40;;;6.10;99.20;;;;;;4993281;28;20042;-71
2020/12/28 03:33:37;;;;;;;0.65;0.43;;;6.10;99.20;;;;;;4993398;28;20347;-72
2020/12/28 03:36:02;;;;;;;0.43;0.43;;;6.10;99.20;;;;;;4994479;28;20033;-71
2020/12/28 03:38:28;;;;;;;1.52;0.50;;;6.10;99.10;;;;;;4993093;28;20034;-71
2020/12/28 03:40:53;;;;;;;0.80;0.60;;;6.10;99.10;;;;;;4992156;28;20034;-71
2020/12/28 03:43:19;;;;;;;0.47;0.38;;;6.10;99.10;;;;;;4992720;28;20037;-72
2020/12/28 03:45:45;;;;;;;0.50;0.35;;;6.00;99.20;;;;;;4991838;28;20436;-71
2020/12/28 03:48:10;;;;;;;1.02;0.40;;;6.00;99.20;;;;;;4992947;28;20058;-71
2020/12/28 03:50:36;;;;;;;0.30;0.30;;;6.00;99.30;;;;;;4993425;28;20030;-71
2020/12/28 03:53:02;;;;;;;0.28;0.28;;;5.90;99.30;;;;;;4992737;28;20369;-71
2020/12/28 03:55:27;;;;;;;1.10;0.50;;;5.90;99.40;;;;;;4992599;28;20428;-71
2020/12/28 03:57:53;;;;;;;0.32;0.32;;;6.00;99.40;;;;;;4992973;28;20038;-72
2020/12/28 04:00:19;;;;;;;0.85;0.38;;;6.00;99.40;;;;;;4992599;28;20022;-71
2020/12/28 04:02:44;;;;;;;4.25;0.43;;;5.90;99.40;;;;;;4994278;28;20372;-70
2020/12/28 04:05:10;;;;;;;0.50;0.35;;;5.90;99.70;;;;;;4991727;28;20432;-71
2020/12/28 04:07:35;;;;;;;0.35;0.32;;;6.00;99.40;;;;;;4991837;28;20041;-71
2020/12/28 04:10:01;;;;;;;0.28;0.28;;;5.90;99.50;;;;;;4992533;28;20039;-70
2020/12/28 04:12:27;;;;;;;0.45;0.28;;;5.90;99.50;;;;;;4992480;28;20045;-72
2020/12/28 04:14:53;;;;;;;0.57;0.40;;;5.90;99.50;;;;;;4993929;28;20046;-70
2020/12/28 04:17:18;;;;;;;1.08;0.40;;;5.90;99.50;;;;;;4992299;28;20504;-72
2020/12/28 04:19:44;;;;;;;0.70;0.60;;;5.80;99.50;;;;;;4991132;28;20363;-70
2020/12/28 04:22:09;;;;;;;0.38;0.28;;;5.90;99.60;;;;;;4991238;28;20038;-72
2020/12/28 04:24:35;;;;;;;0.30;0.22;;;5.90;99.50;;;;;;4991290;28;20104;-72
2020/12/28 04:27:01;;;;;;;0.93;0.47;;;5.90;99.60;;;;;;4993874;28;20089;-71
2020/12/28 04:29:27;;;;;;;1.17;0.32;;;5.90;99.60;;;;;;4992250;28;20038;-71
2020/12/28 04:31:52;;;;;;;0.52;0.40;;;5.90;99.60;;;;;;4992302;28;20045;-72
2020/12/28 04:34:18;;;;;;;1.20;0.40;;;5.80;99.60;;;;;;4992194;28;20058;-72
2020/12/28 04:36:43;;;;;;;0.60;0.43;;;6.00;99.70;;;;;;4992273;28;20034;-72
2020/12/28 04:39:09;;;;;;;0.50;0.38;;;5.90;99.70;;;;;;4992210;28;20027;-71
2020/12/28 04:41:35;;;;;;;0.38;0.32;;;5.90;99.70;;;;;;4993730;28;20076;-70
2020/12/28 04:44:01;;;;;;;0.77;0.57;;;6.00;99.70;;;;;;4992263;28;20384;-70
2020/12/28 04:46:29;;;;;;;0.30;0.30;;;6.00;99.60;;;;;;4992174;28;20030;-71
2020/12/28 04:48:55;;;;;;;0.30;0.20;;;6.00;99.50;;;;;;4991856;28;20353;-71
2020/12/28 04:51:22;;;;;;;0.20;0.20;;;6.00;99.60;;;;;;4992034;28;20033;-71
2020/12/28 04:53:48;;;;;;;0.40;0.40;;;6.00;99.60;;;;;;4997412;28;20572;-73
2020/12/28 04:56:14;;;;;;;0.47;0.40;;;6.00;99.50;;;;;;4995840;28;20089;-71
2020/12/28 04:58:39;;;;;;;0.40;0.40;;;6.00;99.50;;;;;;4996072;28;20282;-71
2020/12/28 05:01:05;;;;;;;0.20;0.20;;;6.00;99.60;;;;;;4995744;28;20054;-72
2020/12/28 05:03:30;;;;;;;1.15;0.50;;;6.00;99.60;;;;;;4995695;28;20353;-72
2020/12/28 05:05:56;;;;;;;1.05;0.43;;;6.00;99.60;;;;;;4997527;28;20090;-73
2020/12/28 05:08:23;;;;;;;0.75;0.20;;;6.00;99.60;;;;;;4994547;28;20105;-74
2020/12/28 05:10:50;;;;;;;0.35;0.35;;;6.00;99.60;;;;;;4995632;28;20062;-73
2020/12/28 05:13:20;;;;;;;0.30;0.30;;;6.10;99.60;;;;;;4995789;28;20069;-72
2020/12/28 05:15:57;;;;;;;0.40;0.40;;;6.00;99.60;;;;;;4995858;28;20038;-73
2020/12/28 05:18:23;;;;;;;0.77;0.60;;;6.00;99.70;;;;;;4995720;28;20101;-72
2020/12/28 05:20:50;;;;;;;0.80;0.68;;;6.00;99.70;;;;;;4997201;28;20030;-72
2020/12/28 05:23:17;;;;;;;0.25;0.22;;;6.00;99.70;;;;;;4995469;28;20038;-72
2020/12/28 05:25:45;;;;;;;0.82;0.50;;;6.00;99.70;;;;;;4995665;28;20061;-72
2020/12/28 05:28:27;;;;;;;1.05;0.50;;;6.00;99.70;;;;;;4995429;28;20049;-72
2020/12/28 05:30:59;;;;;;;0.40;0.40;;;6.00;99.70;;;;;;4995222;28;20385;-72
2020/12/28 05:33:31;;;;;;;0.50;0.45;;;5.90;99.80;;;;;;4995507;28;20065;-71
2020/12/28 05:35:57;;;;;;;0.90;0.60;;;5.90;99.80;;;;;;4995912;28;20050;-72
2020/12/28 05:38:26;;;;;;;0.80;0.50;;;6.00;99.80;;;;;;4995217;28;20423;-71
2020/12/28 05:41:02;;;;;;;1.85;0.70;;;6.00;99.80;;;;;;4994899;28;20109;-72
2020/12/28 05:43:29;;;;;;;1.35;0.70;;;6.00;99.80;;;;;;4995068;28;20034;-72
2020/12/28 05:45:54;;;;;;;2.20;0.68;;;6.00;99.80;;;;;;4995108;28;20147;-72
2020/12/28 05:48:23;;;;;;;2.40;1.05;;;6.00;99.80;;;;;;4995193;28;20026;-71
2020/12/28 05:50:55;;;;;;;1.35;0.90;;;6.00;99.80;;;;;;4996566;28;20038;-72
2020/12/28 05:53:23;;;;;;;2.88;1.00;;;6.10;99.80;;;;;;4995076;28;20042;-73
2020/12/28 05:55:49;;;;;;;;;;;6.10;99.70;;;;;;4995036;28;20358;-70
2020/12/28 05:58:17;;;;;;;1.75;1.00;;;6.10;99.80;;;;;;4995039;28;19964;-72
2020/12/28 06:00:44;;;;;;;;;;;6.10;99.70;;;;;;4995273;28;20457;-72
2020/12/28 06:03:11;;;;;;;1.93;1.30;;;6.20;99.70;;;;;;5009872;28;19917;-72
2020/12/28 06:05:37;;;;;;;1.27;0.90;;;6.10;99.90;;;;;;4996359;28;20074;-72
2020/12/28 06:08:04;;;;;;;1.25;1.02;;;6.20;99.70;;;;;;4994748;28;20130;-71
2020/12/28 06:10:33;;;;;;;1.52;0.90;;;6.20;99.60;;;;;;4993466;28;20037;-71
2020/12/28 06:12:59;;;;;;;2.05;1.00;;;6.20;99.60;;;;;;4994608;28;20453;-72
2020/12/28 06:15:25;;;;;;;3.75;1.00;;;6.20;99.60;;;;;;4994840;28;20049;-71
2020/12/28 06:17:50;;;;;;;4.47;1.30;;;6.20;99.70;;;;;;4996166;28;20053;-72
2020/12/28 06:20:16;;;;;;;1.88;0.93;;;6.30;99.70;;;;;;4994403;28;20042;-73
2020/12/28 06:22:43;;;;;;;1.25;0.90;;;6.30;99.60;;;;;;4994582;28;20110;-73
2020/12/28 06:25:13;;;;;;;1.20;0.80;;;6.30;99.60;;;;;;4993961;28;20062;-72
2020/12/28 06:27:44;;;;;;;1.52;0.70;;;6.30;99.60;;;;;;4994454;28;20117;-72
2020/12/28 06:30:20;;;;;;;1.02;0.90;;;6.30;99.60;;;;;;4994476;28;20414;-72
2020/12/28 06:33:00;;;;;;;1.13;0.68;;;6.30;99.60;;;;;;4995786;28;20472;-71
2020/12/28 06:35:28;;;;;;;1.45;0.85;;;6.30;99.60;;;;;;4994171;28;20035;-73
2020/12/28 06:37:54;;;;;;;1.05;0.50;;;6.30;99.60;;;;;;4994372;28;20030;-72
2020/12/28 06:40:35;;;;;;;1.08;0.70;;;6.20;99.60;;;;;;4994170;28;20037;-71
2020/12/28 06:43:09;;;;;;;1.38;0.80;;;6.30;99.70;;;;;;4993018;28;20464;-72
2020/12/28 06:45:35;;;;;;;1.33;0.43;;;6.30;99.70;;;;;;4992853;28;20432;-71
2020/12/28 06:48:00;;;;;;;0.75;0.75;;;6.30;99.60;;;;;;4995442;28;20034;-73
2020/12/28 06:50:26;;;;;;;0.73;0.60;;;6.30;99.60;;;;;;4994006;28;20045;-72
2020/12/28 06:52:52;;;;;;;0.95;0.65;;;6.30;99.60;;;;;;4993427;28;20050;-72
2020/12/28 06:55:18;;;;;;;1.17;0.70;;;6.20;99.60;;;;;;4993776;28;20068;-73
2020/12/28 06:57:44;;;;;;;0.93;0.70;;;6.30;99.70;;;;;;4993782;28;20030;-72
2020/12/28 07:00:19;;;;;;;0.52;0.52;;;6.30;99.70;;;;;;4993620;28;20038;-73
2020/12/28 07:02:52;;;;;;;0.77;0.50;;;6.30;99.60;;;;;;4994197;28;20019;-71
2020/12/28 07:05:37;;;;;;;0.90;0.50;;;6.30;99.60;;;;;;4992855;28;20034;-72
2020/12/28 07:08:02;;;;;;;1.48;0.68;;;6.30;99.50;;;;;;4993375;28;20038;-72
2020/12/28 07:10:28;;;;;;;1.02;0.77;;;6.30;99.50;;;;;;4993689;28;20073;-70
2020/12/28 07:13:02;;;;;;;0.65;0.55;;;6.30;99.50;;;;;;4993672;28;20469;-71
2020/12/28 07:15:27;;;;;;;0.63;0.50;;;6.40;99.50;;;;;;4993521;28;20052;-72
2020/12/28 07:17:53;;;;;;;1.08;0.50;;;6.40;99.40;;;;;;4994912;28;20096;-72
2020/12/28 07:20:19;;;;;;;0.60;0.50;;;6.30;99.40;;;;;;4993157;28;20038;-72
2020/12/28 07:22:44;;;;;;;1.13;0.70;;;6.40;99.40;;;;;;4993390;28;20031;-70
2020/12/28 07:25:13;;;;;;;0.73;0.70;;;6.40;99.40;;;;;;4993502;28;20543;-70
2020/12/28 07:27:42;;;;;;;0.63;0.50;;;6.40;99.30;;;;;;4993312;28;20030;-72
2020/12/28 07:30:10;;;;;;;1.48;0.93;;;6.40;99.30;;;;;;4993011;28;20037;-71
2020/12/28 07:32:36;;;;;;;0.60;0.60;;;6.40;99.40;;;;;;4995227;28;20341;-71
2020/12/28 07:35:02;;;;;;;1.55;0.60;;;6.40;99.30;;;;;;4992135;28;20038;-71
2020/12/28 07:37:40;;;;;;;2.72;0.60;;;6.40;99.30;;;;;;5076710;27;20434;-73
2020/12/28 07:40:07;;;;;;;1.52;0.90;;;6.40;99.30;;;;;;5068948;27;20036;-73
2020/12/28 07:42:33;;;;;;;1.60;0.60;;;6.30;99.30;;;;;;5069268;28;20039;-73
2020/12/28 07:45:06;;;;;;;0.88;0.50;;;6.30;99.30;;;;;;5070459;28;20461;-73
2020/12/28 07:47:39;;;;;;;0.80;0.60;;;6.30;99.30;;;;;;5069100;28;20036;-73
2020/12/28 07:50:07;;;;;;;0.60;0.60;;;6.20;99.30;;;;;;5085532;28;20115;-72
2020/12/28 07:52:39;;;;;;;0.68;0.60;;;6.20;99.30;;;;;;5089384;28;20050;-72
2020/12/28 07:55:08;;;;;;;1.50;0.70;;;6.30;99.40;;;;;;5088916;27;20436;-71
2020/12/28 07:57:52;;;;;;;0.60;0.57;;;6.20;99.40;;;;;;5088950;27;20032;-73
2020/12/28 08:00:22;;;;;;;1.00;0.80;;;6.20;99.40;;;;;;5088756;27;20478;-72
2020/12/28 08:03:24;;;;;;;1.10;0.80;;;6.30;99.50;;;;;;5090328;28;20013;-75
2020/12/28 08:05:52;;;;;;;1.15;0.93;;;6.30;99.40;;;;;;5087648;28;20044;-76
2020/12/28 08:08:25;;;;;;;;;;;6.40;99.50;;;;;;5069013;28;20064;-73
2020/12/28 08:11:02;;;;;;;1.20;0.68;;;6.40;99.30;;;;;;5083289;28;19940;-73
2020/12/28 08:13:32;;;;;;;1.52;1.00;;;6.40;99.40;;;;;;5088771;27;20040;-74
2020/12/28 08:16:09;;;;;;;2.63;1.38;;;6.40;99.30;;;;;;5088430;27;20527;-74
2020/12/28 08:18:49;;;;;;;1.73;1.30;;;6.40;99.20;;;;;;5087010;28;20032;-74
2020/12/28 08:21:16;;;;;;;2.25;0.90;;;6.50;99.30;;;;;;5088008;27;20019;-75
2020/12/28 08:23:59;;;;;;;5.38;2.95;;;6.50;99.30;;;;;;5089093;28;20434;-73
2020/12/28 08:26:26;;;;;;;5.75;2.78;;;6.50;99.20;;;;;;5087119;28;20051;-72
2020/12/28 08:28:54;;;;;;;2.08;0.88;;;6.60;99.30;;;;;;5087404;28;20123;-75
2020/12/28 08:31:34;;;;;;;2.85;1.02;;;6.60;99.10;;;;;;5087303;28;20032;-75
2020/12/28 08:34:04;;;;;;;3.60;2.00;;;6.70;99.10;;;;;;5087195;28;20075;-73
2020/12/28 08:36:31;;;;;;;3.95;2.25;;;6.70;99.20;;;;;;5087541;27;20047;-74
2020/12/28 08:38:57;;;;;;;1.67;1.15;;;6.70;99.00;;;;;;5089539;28;20024;-77
2020/12/28 08:41:23;;;;;;;2.13;0.90;;;6.70;99.00;;;;;;5087914;28;20081;-77
2020/12/28 08:43:49;;;;;;;2.22;0.60;;;6.80;99.10;;;;;;5087876;27;20127;-74
2020/12/28 08:46:21;;;;;;;2.97;1.65;;;6.90;98.90;;;;;;5087734;27;20121;-74
2020/12/28 08:48:48;;;;;;;4.15;2.22;;;6.90;98.90;;;;;;5075145;28;20470;-73
2020/12/28 08:51:19;;;;;;;3.85;2.30;;;7.00;98.90;;;;;;5074110;28;20446;-73
2020/12/28 08:53:46;;;;;;;1.33;0.80;;;7.00;98.70;;;;;;5074919;28;20062;-73
2020/12/28 08:56:12;;;;;;;4.38;1.00;;;6.90;98.60;;;;;;5074223;28;20134;-72
2020/12/28 08:58:37;;;;;;;1.17;0.93;;;7.00;98.70;;;;;;5074220;28;20083;-75
2020/12/28 09:01:04;;;;;;;1.33;0.80;;;7.00;98.70;;;;;;5074340;28;20037;-73
2020/12/28 09:03:31;;;;;;;2.50;0.98;;;7.10;98.60;;;;;;5074247;28;20043;-73
2020/12/28 09:05:56;;;;;;;2.67;1.10;;;7.10;98.50;;;;;;5076071;28;20070;-75
2020/12/28 09:08:22;;;;;;;2.08;1.10;;;7.10;98.50;;;;;;5074427;28;20078;-84
2020/12/28 09:10:48;;;;;;;2.78;0.82;;;7.10;98.50;;;;;;5073847;28;20037;-81
2020/12/28 09:13:14;;;;;;;0.75;0.68;;;7.10;98.50;;;;;;5073105;28;20098;-81
2020/12/28 09:15:39;;;;;;;1.05;0.77;;;7.20;98.50;;;;;;5073408;28;20098;-84
2020/12/28 09:18:05;;;;;;;1.60;0.70;;;7.20;98.40;;;;;;5073764;28;20067;-80
2020/12/28 09:20:30;;;;;;;1.45;1.00;;;7.30;98.40;;;;;;5075769;28;20076;-73
2020/12/28 09:22:56;;;;;;;1.30;0.93;;;7.30;98.60;;;;;;5073994;28;20078;-74
2020/12/28 09:25:22;;;;;;;1.42;1.00;;;7.30;98.20;;;;;;5074065;28;20024;-75
2020/12/28 09:27:47;;;;;;;1.23;0.88;;;7.40;98.10;;;;;;5073824;28;20111;-74
2020/12/28 09:30:13;;;;;;;2.10;0.93;;;7.40;98.20;;;;;;5073690;28;20031;-72
2020/12/28 09:32:39;;;;;;;0.90;0.80;;;7.50;98.10;;;;;;5075100;28;20487;-75
2020/12/28 09:35:06;;;;;;;4.25;2.33;;;7.50;98.00;;;;;;5073606;28;20033;-76
2020/12/28 09:37:31;;;;;;;3.33;1.50;;;7.50;97.90;;;;;;5073234;28;20063;-76
2020/12/28 09:39:57;;;;;;;3.50;1.90;;;7.60;97.80;;;;;;5072373;28;20458;-76
2020/12/28 09:42:23;;;;;;;3.08;1.50;;;7.60;97.80;;;;;;5072714;28;20028;-73
2020/12/28 09:44:49;;;;;;;5.72;3.20;;;7.70;97.90;;;;;;5075059;28;20050;-77
2020/12/28 09:47:14;;;;;;;3.60;1.85;;;7.70;97.60;;;;;;5073392;28;20033;-77
2020/12/28 09:49:40;;;;;;;0.82;0.80;;;7.70;97.60;;;;;;5073537;28;20058;-80
2020/12/28 09:52:06;;;;;;;1.17;0.75;;;7.70;97.50;;;;;;5073249;28;20033;-70
2020/12/28 09:54:34;;;;;;;2.05;0.90;;;7.80;97.50;;;;;;5072564;28;20506;-72
2020/12/28 09:57:05;;;;;;;1.15;0.85;;;7.90;97.40;;;;;;5074327;28;20078;-72
2020/12/28 09:59:38;;;;;;;0.88;0.80;;;7.90;97.30;;;;;;5072592;28;20048;-70
2020/12/28 10:02:07;;;;;;;1.08;0.77;;;7.80;97.30;;;;;;5073241;28;20146;-72
2020/12/28 10:04:33;;;;;;;2.17;1.00;;;7.90;97.30;;;;;;5072863;28;20041;-71
2020/12/28 10:06:59;;;;;;;1.10;0.80;;;7.90;97.20;;;;;;5073169;28;20067;-72
2020/12/28 10:09:26;;;;;;;1.38;0.75;;;8.00;97.30;;;;;;5072939;28;20068;-72
2020/12/28 10:11:51;;;;;;;1.63;0.98;;;8.10;97.20;;;;;;5074334;28;20025;-72
2020/12/28 10:14:17;;;;;;;1.95;1.10;;;8.10;97.00;;;;;;5073591;28;20101;-74
2020/12/28 10:16:43;;;;;;;2.20;1.25;;;8.10;97.20;;;;;;5072687;28;20124;-75
2020/12/28 10:19:08;;;;;;;1.55;1.10;;;8.20;97.00;;;;;;5072724;28;20024;-74
2020/12/28 10:21:34;;;;;;;2.50;0.90;;;8.20;96.90;;;;;;5072511;28;20051;-74
2020/12/28 10:24:00;;;;;;;1.85;1.00;;;8.20;96.90;;;;;;5074087;28;20404;-75
2020/12/28 10:26:28;;;;;;;0.90;0.80;;;8.20;96.50;;;;;;5072547;28;20103;-74
2020/12/28 10:28:55;;;;;;;1.77;1.20;;;8.20;96.80;;;;;;5071374;28;20029;-74
2020/12/28 10:31:21;;;;;;;4.57;2.13;;;8.30;96.80;;;;;;5072403;28;20403;-73
2020/12/28 10:33:48;;;;;;;2.85;1.70;;;8.40;96.70;;;;;;5072405;28;20476;-72
2020/12/28 10:36:24;;;;;;;2.23;1.07;;;8.50;96.60;;;;;;5071959;28;20121;-72
2020/12/28 10:38:52;;;;;;;1.92;0.88;;;8.40;96.40;;;;;;5073856;28;20335;-71
2020/12/28 10:41:28;;;;;;;;;;;8.40;96.50;;;;;;5071250;28;20028;-73
2020/12/28 10:43:55;;;;;;;1.23;0.63;;;8.40;96.40;;;;;;5072551;28;19967;-72
2020/12/28 10:46:21;;;;;;;0.88;0.80;;;8.40;96.50;;;;;;5072369;28;20075;-73
2020/12/28 10:48:46;;;;;;;1.95;1.13;;;8.30;96.50;;;;;;5072094;28;20470;-74
2020/12/28 10:51:12;;;;;;;1.25;0.70;;;8.40;96.50;;;;;;5071910;28;20024;-72
2020/12/28 10:53:38;;;;;;;7.85;1.20;;;8.40;96.30;;;;;;5073669;28;20099;-70
2020/12/28 10:56:07;;;;;;;1.60;0.63;;;8.40;96.40;;;;;;5071949;28;20477;-71
2020/12/28 10:58:34;;;;;;;0.80;0.60;;;8.50;96.30;;;;;;5072206;28;20028;-72
2020/12/28 11:00:59;;;;;;;1.13;0.60;;;8.60;96.10;;;;;;5071992;28;20415;-72
2020/12/28 11:03:25;;;;;;;1.08;0.82;;;8.70;96.00;;;;;;5071698;28;20102;-72
2020/12/28 11:05:50;;;;;;;1.00;0.70;;;8.70;95.90;;;;;;5073391;28;20351;-71
2020/12/28 11:08:16;;;;;;;2.33;0.80;;;8.60;95.90;;;;;;5072001;28;20422;-73
2020/12/28 11:10:42;;;;;;;2.22;1.10;;;8.60;96.40;;;;;;5071042;28;20055;-71
2020/12/28 11:13:08;;;;;;;1.08;0.68;;;8.50;96.00;;;;;;5071617;28;20362;-69
2020/12/28 11:15:34;;;;;;;2.95;0.95;;;8.50;96.00;;;;;;5071445;28;20032;-72
2020/12/28 11:18:00;;;;;;;3.00;0.75;;;8.40;96.00;;;;;;5072159;28;20020;-71
2020/12/28 11:20:26;;;;;;;5.72;0.80;;;8.40;96.00;;;;;;5071640;28;20370;-72
2020/12/28 11:22:52;;;;;;;2.95;0.90;;;8.40;95.90;;;;;;5071775;28;20029;-73
2020/12/28 11:25:18;;;;;;;1.52;1.00;;;8.50;96.10;;;;;;5071375;28;20024;-72
2020/12/28 11:27:44;;;;;;;1.58;0.93;;;8.50;96.20;;;;;;5071540;28;20101;-71
2020/12/28 11:30:10;;;;;;;1.17;0.70;;;8.60;95.90;;;;;;5071555;28;20454;-71
2020/12/28 11:32:36;;;;;;;2.13;0.85;;;8.60;95.80;;;;;;5073018;28;20374;-71
2020/12/28 11:35:03;;;;;;;1.17;0.80;;;8.60;95.70;;;;;;5071528;28;20037;-72
2020/12/28 11:37:31;;;;;;;3.83;1.00;;;8.50;95.40;;;;;;5071470;28;20048;-69
2020/12/28 11:39:58;;;;;;;2.25;1.17;;;8.40;95.40;;;;;;5070553;28;20066;-68
2020/12/28 11:42:23;;;;;;;3.33;1.77;;;8.40;95.50;;;;;;5071206;28;20519;-71
2020/12/28 11:44:51;;;;;;;3.42;1.33;;;8.40;95.90;;;;;;5072831;28;20029;-70
2020/12/28 11:47:17;;;;;;;1.08;0.90;;;8.30;95.70;;;;;;5070418;28;20032;-68
2020/12/28 11:49:42;;;;;;;4.68;1.60;;;8.30;95.80;;;;;;5071204;28;20041;-73
2020/12/28 11:52:08;;;;;;;0.63;0.63;;;8.20;95.70;;;;;;5070260;28;20032;-72
2020/12/28 11:54:34;;;;;;;0.60;0.60;;;8.20;95.70;;;;;;5071510;28;20048;-72
2020/12/28 11:56:59;;;;;;;2.22;1.13;;;8.10;95.60;;;;;;5072098;28;20025;-72
2020/12/28 11:59:25;;;;;;;1.35;0.80;;;8.10;95.90;;;;;;5071403;28;20089;-71
2020/12/28 12:01:51;;;;;;;2.28;0.93;;;8.20;96.00;;;;;;5070631;28;20048;-70
2020/12/28 12:04:16;;;;;;;2.72;0.80;;;8.10;95.80;;;;;;5071463;28;20029;-71
2020/12/28 12:06:42;;;;;;;2.13;0.90;;;8.10;95.80;;;;;;5070951;28;20407;-72
2020/12/28 12:09:10;;;;;;;0.70;0.70;;;8.10;95.90;;;;;;5071296;28;20020;-73
2020/12/28 12:11:37;;;;;;;1.27;0.85;;;8.10;95.60;;;;;;5072889;28;20463;-72
2020/12/28 12:14:04;;;;;;;0.73;0.60;;;8.10;95.60;;;;;;5067028;28;20068;-71
2020/12/28 12:16:30;;;;;;;1.10;0.73;;;8.20;95.50;;;;;;5071254;28;20094;-70
2020/12/28 12:18:56;;;;;;;1.50;0.40;;;8.30;95.40;;;;;;5071521;28;20029;-72
2020/12/28 12:21:21;;;;;;;2.63;0.73;;;8.40;95.50;;;;;;5070697;28;20031;-75
2020/12/28 12:23:47;;;;;;;1.70;0.70;;;8.50;95.20;;;;;;5074514;28;20051;-76
2020/12/28 12:26:17;;;;;;;1.25;0.60;;;8.80;95.10;;;;;;5074926;28;20495;-75
2020/12/28 12:28:43;;;;;;;1.15;0.77;;;8.90;95.00;;;;;;5075515;28;20028;-80
2020/12/28 12:31:08;;;;;;;1.88;0.85;;;9.10;94.80;;;;;;5073656;28;20025;-75
2020/12/28 12:33:34;;;;;;;1.75;0.77;;;9.10;94.40;;;;;;5074610;28;20477;-75
2020/12/28 12:36:00;;;;;;;2.28;0.73;;;9.20;94.20;;;;;;5075821;28;20047;-72
2020/12/28 12:38:26;;;;;;;1.55;1.00;;;9.30;94.40;;;;;;5074715;28;20049;-76
2020/12/28 12:40:51;;;;;;;1.40;0.90;;;9.30;94.00;;;;;;5074653;28;20044;-86
2020/12/28 12:43:17;;;;;;;2.65;0.90;;;9.30;93.90;;;;;;5074705;28;20514;-81
2020/12/28 12:45:43;;;;;;;3.90;1.10;;;9.40;93.80;;;;;;5074486;28;20032;-74
2020/12/28 12:48:08;;;;;;;1.00;0.60;;;9.40;93.70;;;;;;5074374;28;20347;-73
2020/12/28 12:50:34;;;;;;;1.60;0.73;;;9.40;93.60;;;;;;5074819;28;20362;-74
2020/12/28 12:52:59;;;;;;;2.13;0.88;;;9.50;93.60;;;;;;5074432;28;20233;-73
2020/12/28 12:55:25;;;;;;;1.45;0.77;;;9.40;93.10;;;;;;5074629;28;20612;-70
2020/12/28 12:57:51;;;;;;;0.90;0.60;;;9.40;93.20;;;;;;5074490;28;20029;-74